This is the latest recevied weather packets stored in our database for station/object WK7G. If no packets are shown the sender has not sent any weather packets the latest 10 day(s).
| Time | Temp. | Humidity | Pressure | Rain* | Wind** | Luminosity | Snow |
|---|---|---|---|---|---|---|---|
| 1778075846 | 0.56° C | 57% | 1012.4 hPa | 0 mm | - | 184 W/m² | - |
| 1778074633 | 0° C | 59% | 1012.2 hPa | 0 mm | - | 116 W/m² | - |
| 1778073723 | -1.67° C | 65% | 1011.9 hPa | 0 mm | - | 52 W/m² | - |
| 1778072814 | -3.33° C | 68% | 1011.8 hPa | 0 mm | - | 37 W/m² | - |
| 1778069486 | -5° C | 72% | 1011.2 hPa | 0 mm | - | 2 W/m² | - |
| 1778068881 | -5° C | 71% | 1011.2 hPa | 0 mm | - | 0 W/m² | - |
| 1778067370 | -5° C | 72% | 1011.1 hPa | 0 mm | - | 0 W/m² | - |
| 1778066159 | -4.44° C | 71% | 1011.1 hPa | 0 mm | - | 0 W/m² | - |
| 1778065856 | -4.44° C | 70% | 1011.1 hPa | 0 mm | - | 0 W/m² | - |
| 1778063736 | -3.89° C | 70% | 1010.9 hPa | 0 mm | - | 0 W/m² | - |
| 1778063433 | -4.44° C | 70% | 1010.9 hPa | 0 mm | - | 0 W/m² | - |
| 1778063132 | -3.89° C | 70% | 1010.7 hPa | 0 mm | - | 0 W/m² | - |
| 1778062829 | -4.44° C | 69% | 1010.7 hPa | 0 mm | - | 0 W/m² | - |
| 1778062525 | -3.89° C | 68% | 1011 hPa | 0 mm | - | 0 W/m² | - |
| 1778061920 | -3.89° C | 69% | 1010.7 hPa | 0 mm | - | 0 W/m² | - |
| 1778061317 | -4.44° C | 71% | 1010.7 hPa | 0 mm | - | 0 W/m² | - |
| 1778060107 | -4.44° C | 71% | 1010.6 hPa | 0 mm | - | 0 W/m² | - |
| 1778058896 | -2.22° C | 60% | 1010.5 hPa | 0 mm | - | 0 W/m² | - |
| 1778058593 | -2.78° C | 65% | 1010.5 hPa | 0 mm | - | 0 W/m² | - |
| 1778057987 | -3.33° C | 65% | 1010.6 hPa | 0 mm | - | 0 W/m² | - |
| 1778056773 | -3.33° C | 66% | 1010.3 hPa | 0 mm | - | 0 W/m² | - |
| 1778056471 | -2.78° C | 65% | 1010.1 hPa | 0 mm | - | 0 W/m² | - |
| 1778056168 | -2.22° C | 61% | 1010.1 hPa | 0 mm | - | 0 W/m² | - |
| 1778055865 | -2.22° C | 62% | 1010.3 hPa | 0 mm | - | 0 W/m² | - |
| 1778055560 | -1.11° C | 59% | 1010.3 hPa | 0 mm | - | 0 W/m² | - |
* Rain latest hour (hover to see other rain measurements)
** Current wind speed in m/s (hover to see current wind gust speed)